sensor_id;sensor_type;location;lat;lon;timestamp;P1;durP1;ratioP1;P2;durP2;ratioP2
76157;SDS011;64907;51.574;6.502;2023-06-04T00:01:44;1.83;;;1.73;;
76157;SDS011;64907;51.574;6.502;2023-06-04T00:04:13;2.97;;;1.90;;
76157;SDS011;64907;51.574;6.502;2023-06-04T00:06:38;3.08;;;1.80;;
76157;SDS011;64907;51.574;6.502;2023-06-04T00:09:03;2.00;;;1.90;;
76157;SDS011;64907;51.574;6.502;2023-06-04T00:11:28;2.10;;;2.00;;
76157;SDS011;64907;51.574;6.502;2023-06-04T00:13:55;1.92;;;1.70;;
76157;SDS011;64907;51.574;6.502;2023-06-04T00:16:20;2.63;;;2.30;;
76157;SDS011;64907;51.574;6.502;2023-06-04T00:18:45;1.80;;;1.80;;
76157;SDS011;64907;51.574;6.502;2023-06-04T00:21:10;2.08;;;1.90;;
76157;SDS011;64907;51.574;6.502;2023-06-04T00:23:43;9.13;;;2.00;;
76157;SDS011;64907;51.574;6.502;2023-06-04T00:26:09;2.00;;;1.92;;
76157;SDS011;64907;51.574;6.502;2023-06-04T00:28:34;2.15;;;1.92;;
76157;SDS011;64907;51.574;6.502;2023-06-04T00:30:59;2.10;;;2.00;;
76157;SDS011;64907;51.574;6.502;2023-06-04T00:33:24;3.60;;;1.95;;
76157;SDS011;64907;51.574;6.502;2023-06-04T00:35:50;3.47;;;2.10;;
76157;SDS011;64907;51.574;6.502;2023-06-04T00:38:15;2.30;;;2.00;;
76157;SDS011;64907;51.574;6.502;2023-06-04T00:40:40;5.15;;;2.20;;
76157;SDS011;64907;51.574;6.502;2023-06-04T00:43:05;3.07;;;2.10;;
76157;SDS011;64907;51.574;6.502;2023-06-04T00:45:31;3.08;;;2.03;;
76157;SDS011;64907;51.574;6.502;2023-06-04T00:47:59;3.63;;;1.90;;
76157;SDS011;64907;51.574;6.502;2023-06-04T00:50:28;1.90;;;1.80;;
76157;SDS011;64907;51.574;6.502;2023-06-04T00:52:53;2.22;;;2.13;;
76157;SDS011;64907;51.574;6.502;2023-06-04T00:58:04;2.33;;;2.15;;
76157;SDS011;64907;51.574;6.502;2023-06-04T01:00:42;2.42;;;2.22;;
76157;SDS011;64907;51.574;6.502;2023-06-04T01:03:10;2.63;;;2.25;;
76157;SDS011;64907;51.574;6.502;2023-06-04T01:08:15;3.97;;;2.25;;
76157;SDS011;64907;51.574;6.502;2023-06-04T01:10:51;3.13;;;1.80;;
76157;SDS011;64907;51.574;6.502;2023-06-04T01:13:16;3.03;;;2.20;;
76157;SDS011;64907;51.574;6.502;2023-06-04T01:15:42;2.25;;;2.15;;
76157;SDS011;64907;51.574;6.502;2023-06-04T01:18:08;4.43;;;2.17;;
76157;SDS011;64907;51.574;6.502;2023-06-04T01:23:05;2.60;;;2.40;;
76157;SDS011;64907;51.574;6.502;2023-06-04T01:25:37;3.63;;;2.17;;
76157;SDS011;64907;51.574;6.502;2023-06-04T01:28:07;3.28;;;2.50;;
76157;SDS011;64907;51.574;6.502;2023-06-04T01:30:45;2.92;;;2.28;;
76157;SDS011;64907;51.574;6.502;2023-06-04T01:33:16;2.28;;;2.17;;
76157;SDS011;64907;51.574;6.502;2023-06-04T01:35:42;4.75;;;2.20;;
76157;SDS011;64907;51.574;6.502;2023-06-04T01:38:07;4.68;;;2.40;;
76157;SDS011;64907;51.574;6.502;2023-06-04T01:40:32;2.40;;;2.30;;
76157;SDS011;64907;51.574;6.502;2023-06-04T01:42:58;4.47;;;2.53;;
76157;SDS011;64907;51.574;6.502;2023-06-04T01:45:23;4.85;;;2.33;;
76157;SDS011;64907;51.574;6.502;2023-06-04T01:47:49;3.60;;;2.17;;
76157;SDS011;64907;51.574;6.502;2023-06-04T01:50:14;3.03;;;2.83;;
76157;SDS011;64907;51.574;6.502;2023-06-04T01:52:40;2.58;;;2.38;;
76157;SDS011;64907;51.574;6.502;2023-06-04T01:55:07;2.50;;;2.20;;
76157;SDS011;64907;51.574;6.502;2023-06-04T01:57:33;2.42;;;2.30;;
76157;SDS011;64907;51.574;6.502;2023-06-04T01:59:58;2.28;;;2.08;;
76157;SDS011;64907;51.574;6.502;2023-06-04T02:02:23;3.22;;;2.47;;
76157;SDS011;64907;51.574;6.502;2023-06-04T02:04:50;2.83;;;2.28;;
76157;SDS011;64907;51.574;6.502;2023-06-04T02:07:18;2.13;;;2.03;;
76157;SDS011;64907;51.574;6.502;2023-06-04T02:09:45;2.92;;;2.45;;
76157;SDS011;64907;51.574;6.502;2023-06-04T02:12:10;4.40;;;2.38;;
76157;SDS011;64907;51.574;6.502;2023-06-04T02:14:36;2.80;;;2.60;;
76157;SDS011;64907;51.574;6.502;2023-06-04T02:17:02;2.83;;;2.38;;
76157;SDS011;64907;51.574;6.502;2023-06-04T02:19:30;4.18;;;2.47;;
76157;SDS011;64907;51.574;6.502;2023-06-04T02:21:58;2.65;;;2.45;;
76157;SDS011;64907;51.574;6.502;2023-06-04T02:24:24;3.13;;;2.90;;
76157;SDS011;64907;51.574;6.502;2023-06-04T02:26:49;2.55;;;2.35;;
76157;SDS011;64907;51.574;6.502;2023-06-04T02:29:14;4.07;;;2.80;;
76157;SDS011;64907;51.574;6.502;2023-06-04T02:31:40;3.10;;;2.85;;
76157;SDS011;64907;51.574;6.502;2023-06-04T02:34:05;4.33;;;2.77;;
76157;SDS011;64907;51.574;6.502;2023-06-04T02:36:30;6.50;;;2.60;;
76157;SDS011;64907;51.574;6.502;2023-06-04T02:38:55;4.15;;;3.03;;
76157;SDS011;64907;51.574;6.502;2023-06-04T02:41:23;3.10;;;2.65;;
76157;SDS011;64907;51.574;6.502;2023-06-04T02:43:52;2.58;;;2.38;;
76157;SDS011;64907;51.574;6.502;2023-06-04T02:46:30;6.82;;;2.83;;
76157;SDS011;64907;51.574;6.502;2023-06-04T02:48:55;3.15;;;2.60;;
76157;SDS011;64907;51.574;6.502;2023-06-04T02:51:20;6.27;;;2.93;;
76157;SDS011;64907;51.574;6.502;2023-06-04T02:53:46;2.90;;;2.70;;
76157;SDS011;64907;51.574;6.502;2023-06-04T02:56:11;3.38;;;2.47;;
76157;SDS011;64907;51.574;6.502;2023-06-04T02:58:37;5.28;;;3.20;;
76157;SDS011;64907;51.574;6.502;2023-06-04T03:01:04;2.95;;;2.75;;
76157;SDS011;64907;51.574;6.502;2023-06-04T03:03:30;4.55;;;3.05;;
76157;SDS011;64907;51.574;6.502;2023-06-04T03:05:56;3.22;;;3.00;;
76157;SDS011;64907;51.574;6.502;2023-06-04T03:08:21;2.90;;;2.58;;
76157;SDS011;64907;51.574;6.502;2023-06-04T03:10:46;4.03;;;2.72;;
76157;SDS011;64907;51.574;6.502;2023-06-04T03:13:12;2.78;;;2.67;;
76157;SDS011;64907;51.574;6.502;2023-06-04T03:15:38;3.13;;;2.87;;
76157;SDS011;64907;51.574;6.502;2023-06-04T03:18:05;3.30;;;3.00;;
76157;SDS011;64907;51.574;6.502;2023-06-04T03:20:30;3.03;;;2.75;;
76157;SDS011;64907;51.574;6.502;2023-06-04T03:25:24;3.10;;;2.90;;
76157;SDS011;64907;51.574;6.502;2023-06-04T03:27:50;4.07;;;2.80;;
76157;SDS011;64907;51.574;6.502;2023-06-04T03:30:15;3.63;;;3.30;;
76157;SDS011;64907;51.574;6.502;2023-06-04T03:32:46;3.75;;;3.10;;
76157;SDS011;64907;51.574;6.502;2023-06-04T03:35:12;5.65;;;3.00;;
76157;SDS011;64907;51.574;6.502;2023-06-04T03:37:37;5.27;;;2.70;;
76157;SDS011;64907;51.574;6.502;2023-06-04T03:40:05;2.92;;;2.70;;
76157;SDS011;64907;51.574;6.502;2023-06-04T03:42:31;3.22;;;3.03;;
76157;SDS011;64907;51.574;6.502;2023-06-04T03:44:56;4.30;;;3.23;;
76157;SDS011;64907;51.574;6.502;2023-06-04T03:47:24;4.13;;;3.28;;
76157;SDS011;64907;51.574;6.502;2023-06-04T03:49:49;3.72;;;3.13;;
76157;SDS011;64907;51.574;6.502;2023-06-04T03:52:14;6.72;;;3.20;;
76157;SDS011;64907;51.574;6.502;2023-06-04T03:54:39;6.88;;;3.28;;
76157;SDS011;64907;51.574;6.502;2023-06-04T03:57:05;4.85;;;2.90;;
76157;SDS011;64907;51.574;6.502;2023-06-04T03:59:30;3.40;;;3.10;;
76157;SDS011;64907;51.574;6.502;2023-06-04T04:01:55;3.80;;;2.63;;
76157;SDS011;64907;51.574;6.502;2023-06-04T04:04:20;3.03;;;2.83;;
76157;SDS011;64907;51.574;6.502;2023-06-04T04:06:47;3.22;;;2.92;;
76157;SDS011;64907;51.574;6.502;2023-06-04T04:09:12;4.90;;;3.72;;
76157;SDS011;64907;51.574;6.502;2023-06-04T04:11:38;3.30;;;3.00;;
76157;SDS011;64907;51.574;6.502;2023-06-04T04:14:03;5.18;;;3.72;;
76157;SDS011;64907;51.574;6.502;2023-06-04T04:16:28;3.10;;;2.90;;
76157;SDS011;64907;51.574;6.502;2023-06-04T04:19:00;3.97;;;3.17;;
76157;SDS011;64907;51.574;6.502;2023-06-04T04:21:25;2.97;;;2.78;;
76157;SDS011;64907;51.574;6.502;2023-06-04T04:23:51;3.58;;;3.28;;
76157;SDS011;64907;51.574;6.502;2023-06-04T04:26:16;5.80;;;3.70;;
76157;SDS011;64907;51.574;6.502;2023-06-04T04:28:42;7.50;;;3.40;;
76157;SDS011;64907;51.574;6.502;2023-06-04T04:31:11;3.42;;;3.22;;
76157;SDS011;64907;51.574;6.502;2023-06-04T04:33:36;3.13;;;2.92;;
76157;SDS011;64907;51.574;6.502;2023-06-04T04:36:04;4.15;;;2.92;;
76157;SDS011;64907;51.574;6.502;2023-06-04T04:38:29;3.20;;;2.97;;
76157;SDS011;64907;51.574;6.502;2023-06-04T04:40:56;3.08;;;2.88;;
76157;SDS011;64907;51.574;6.502;2023-06-04T04:45:57;4.22;;;2.92;;
76157;SDS011;64907;51.574;6.502;2023-06-04T04:48:23;2.92;;;2.42;;
76157;SDS011;64907;51.574;6.502;2023-06-04T04:50:49;3.10;;;2.90;;
76157;SDS011;64907;51.574;6.502;2023-06-04T04:53:14;2.80;;;2.60;;
76157;SDS011;64907;51.574;6.502;2023-06-04T04:55:39;2.90;;;2.70;;
76157;SDS011;64907;51.574;6.502;2023-06-04T04:58:04;2.90;;;2.58;;
76157;SDS011;64907;51.574;6.502;2023-06-04T05:05:53;2.63;;;2.42;;
76157;SDS011;64907;51.574;6.502;2023-06-04T05:08:18;2.37;;;2.27;;
76157;SDS011;64907;51.574;6.502;2023-06-04T05:10:44;3.43;;;2.80;;
76157;SDS011;64907;51.574;6.502;2023-06-04T05:13:10;4.78;;;2.80;;
76157;SDS011;64907;51.574;6.502;2023-06-04T05:15:36;2.92;;;2.72;;
76157;SDS011;64907;51.574;6.502;2023-06-04T05:18:13;3.67;;;3.47;;
76157;SDS011;64907;51.574;6.502;2023-06-04T05:20:41;3.90;;;2.90;;
76157;SDS011;64907;51.574;6.502;2023-06-04T05:23:06;5.18;;;3.50;;
76157;SDS011;64907;51.574;6.502;2023-06-04T05:25:34;3.08;;;2.80;;
76157;SDS011;64907;51.574;6.502;2023-06-04T05:28:00;3.55;;;3.22;;
76157;SDS011;64907;51.574;6.502;2023-06-04T05:30:32;3.40;;;3.10;;
76157;SDS011;64907;51.574;6.502;2023-06-04T05:32:58;3.53;;;3.08;;
76157;SDS011;64907;51.574;6.502;2023-06-04T05:35:24;3.70;;;3.25;;
76157;SDS011;64907;51.574;6.502;2023-06-04T05:37:56;4.43;;;3.20;;
76157;SDS011;64907;51.574;6.502;2023-06-04T05:40:21;5.85;;;3.00;;
76157;SDS011;64907;51.574;6.502;2023-06-04T05:42:47;3.30;;;3.10;;
76157;SDS011;64907;51.574;6.502;2023-06-04T05:45:12;3.47;;;2.97;;
76157;SDS011;64907;51.574;6.502;2023-06-04T05:47:37;3.20;;;3.00;;
76157;SDS011;64907;51.574;6.502;2023-06-04T05:50:03;3.50;;;3.30;;
76157;SDS011;64907;51.574;6.502;2023-06-04T05:52:31;3.30;;;3.00;;
76157;SDS011;64907;51.574;6.502;2023-06-04T05:54:56;3.00;;;2.83;;
76157;SDS011;64907;51.574;6.502;2023-06-04T05:57:21;3.47;;;3.07;;
76157;SDS011;64907;51.574;6.502;2023-06-04T05:59:46;3.20;;;3.05;;
76157;SDS011;64907;51.574;6.502;2023-06-04T06:02:11;4.20;;;3.20;;
76157;SDS011;64907;51.574;6.502;2023-06-04T06:04:38;4.75;;;3.30;;
76157;SDS011;64907;51.574;6.502;2023-06-04T06:07:03;3.30;;;3.08;;
76157;SDS011;64907;51.574;6.502;2023-06-04T06:09:28;3.40;;;3.10;;
76157;SDS011;64907;51.574;6.502;2023-06-04T06:11:53;3.47;;;2.80;;
76157;SDS011;64907;51.574;6.502;2023-06-04T06:14:18;3.50;;;3.03;;
76157;SDS011;64907;51.574;6.502;2023-06-04T06:16:44;2.80;;;2.65;;
76157;SDS011;64907;51.574;6.502;2023-06-04T06:19:10;3.08;;;2.70;;
76157;SDS011;64907;51.574;6.502;2023-06-04T06:21:36;3.30;;;2.85;;
76157;SDS011;64907;51.574;6.502;2023-06-04T06:24:01;3.13;;;2.93;;
76157;SDS011;64907;51.574;6.502;2023-06-04T06:26:26;4.80;;;2.95;;
76157;SDS011;64907;51.574;6.502;2023-06-04T06:28:52;3.40;;;2.83;;
76157;SDS011;64907;51.574;6.502;2023-06-04T06:31:19;2.83;;;2.63;;
76157;SDS011;64907;51.574;6.502;2023-06-04T06:33:45;2.75;;;2.50;;
76157;SDS011;64907;51.574;6.502;2023-06-04T06:36:12;2.70;;;2.55;;
76157;SDS011;64907;51.574;6.502;2023-06-04T06:38:38;3.15;;;2.78;;
76157;SDS011;64907;51.574;6.502;2023-06-04T06:41:03;2.70;;;2.50;;
76157;SDS011;64907;51.574;6.502;2023-06-04T06:43:31;2.35;;;2.25;;
76157;SDS011;64907;51.574;6.502;2023-06-04T06:50:57;4.30;;;2.70;;
76157;SDS011;64907;51.574;6.502;2023-06-04T06:53:22;2.60;;;2.45;;
76157;SDS011;64907;51.574;6.502;2023-06-04T06:55:53;3.92;;;2.70;;
76157;SDS011;64907;51.574;6.502;2023-06-04T06:58:19;2.50;;;2.40;;
76157;SDS011;64907;51.574;6.502;2023-06-04T07:00:51;2.60;;;2.40;;
76157;SDS011;64907;51.574;6.502;2023-06-04T07:03:17;6.30;;;2.33;;
76157;SDS011;64907;51.574;6.502;2023-06-04T07:05:42;2.35;;;2.25;;
76157;SDS011;64907;51.574;6.502;2023-06-04T07:08:10;6.68;;;2.28;;
76157;SDS011;64907;51.574;6.502;2023-06-04T07:10:38;3.08;;;2.40;;
76157;SDS011;64907;51.574;6.502;2023-06-04T07:13:03;2.35;;;2.15;;
76157;SDS011;64907;51.574;6.502;2023-06-04T07:17:59;3.30;;;2.30;;
76157;SDS011;64907;51.574;6.502;2023-06-04T07:20:24;2.28;;;2.03;;
76157;SDS011;64907;51.574;6.502;2023-06-04T07:22:49;4.10;;;1.90;;
76157;SDS011;64907;51.574;6.502;2023-06-04T07:25:21;2.25;;;1.83;;
76157;SDS011;64907;51.574;6.502;2023-06-04T07:27:49;2.90;;;2.17;;
76157;SDS011;64907;51.574;6.502;2023-06-04T07:35:44;3.53;;;1.85;;
76157;SDS011;64907;51.574;6.502;2023-06-04T07:38:23;2.10;;;2.00;;
76157;SDS011;64907;51.574;6.502;2023-06-04T07:40:48;2.70;;;2.05;;
76157;SDS011;64907;51.574;6.502;2023-06-04T07:43:14;2.47;;;2.27;;
76157;SDS011;64907;51.574;6.502;2023-06-04T07:48:11;2.28;;;1.90;;
76157;SDS011;64907;51.574;6.502;2023-06-04T07:50:36;2.05;;;1.85;;
76157;SDS011;64907;51.574;6.502;2023-06-04T07:53:10;3.53;;;2.17;;
76157;SDS011;64907;51.574;6.502;2023-06-04T07:55:37;3.05;;;2.17;;
76157;SDS011;64907;51.574;6.502;2023-06-04T07:58:02;2.05;;;1.95;;
76157;SDS011;64907;51.574;6.502;2023-06-04T08:00:28;3.60;;;2.35;;
76157;SDS011;64907;51.574;6.502;2023-06-04T08:02:54;2.85;;;1.90;;
76157;SDS011;64907;51.574;6.502;2023-06-04T08:05:19;3.45;;;2.10;;
76157;SDS011;64907;51.574;6.502;2023-06-04T08:07:47;2.00;;;1.80;;
76157;SDS011;64907;51.574;6.502;2023-06-04T08:12:49;2.30;;;2.20;;
76157;SDS011;64907;51.574;6.502;2023-06-04T08:15:16;2.67;;;1.80;;
76157;SDS011;64907;51.574;6.502;2023-06-04T08:20:11;2.85;;;2.30;;
76157;SDS011;64907;51.574;6.502;2023-06-04T08:22:37;2.75;;;2.00;;
76157;SDS011;64907;51.574;6.502;2023-06-04T08:30:08;2.75;;;1.92;;
76157;SDS011;64907;51.574;6.502;2023-06-04T08:32:34;3.13;;;1.83;;
76157;SDS011;64907;51.574;6.502;2023-06-04T08:34:59;3.80;;;2.17;;
76157;SDS011;64907;51.574;6.502;2023-06-04T08:37:24;1.80;;;1.70;;
76157;SDS011;64907;51.574;6.502;2023-06-04T08:42:22;3.35;;;2.03;;
76157;SDS011;64907;51.574;6.502;2023-06-04T08:44:51;2.85;;;1.77;;
76157;SDS011;64907;51.574;6.502;2023-06-04T08:47:20;1.83;;;1.73;;
76157;SDS011;64907;51.574;6.502;2023-06-04T08:49:50;2.58;;;1.70;;
76157;SDS011;64907;51.574;6.502;2023-06-04T08:54:56;1.88;;;1.60;;
76157;SDS011;64907;51.574;6.502;2023-06-04T08:57:22;4.47;;;1.50;;
76157;SDS011;64907;51.574;6.502;2023-06-04T08:59:47;3.17;;;1.90;;
76157;SDS011;64907;51.574;6.502;2023-06-04T09:02:21;1.50;;;1.50;;
76157;SDS011;64907;51.574;6.502;2023-06-04T09:04:47;1.42;;;1.33;;
76157;SDS011;64907;51.574;6.502;2023-06-04T09:07:13;1.73;;;1.63;;
76157;SDS011;64907;51.574;6.502;2023-06-04T09:09:39;1.50;;;1.50;;
76157;SDS011;64907;51.574;6.502;2023-06-04T09:12:08;3.97;;;1.30;;
76157;SDS011;64907;51.574;6.502;2023-06-04T09:14:34;1.65;;;1.38;;
76157;SDS011;64907;51.574;6.502;2023-06-04T09:17:03;1.75;;;1.50;;
76157;SDS011;64907;51.574;6.502;2023-06-04T09:19:28;1.52;;;1.20;;
76157;SDS011;64907;51.574;6.502;2023-06-04T09:24:21;2.17;;;1.35;;
76157;SDS011;64907;51.574;6.502;2023-06-04T09:26:46;1.00;;;1.00;;
76157;SDS011;64907;51.574;6.502;2023-06-04T09:29:11;1.60;;;1.58;;
76157;SDS011;64907;51.574;6.502;2023-06-04T09:31:36;1.20;;;1.20;;
76157;SDS011;64907;51.574;6.502;2023-06-04T09:34:03;1.30;;;1.30;;
76157;SDS011;64907;51.574;6.502;2023-06-04T09:36:35;1.60;;;1.42;;
76157;SDS011;64907;51.574;6.502;2023-06-04T09:39:01;3.10;;;2.03;;
76157;SDS011;64907;51.574;6.502;2023-06-04T09:44:03;1.58;;;1.10;;
76157;SDS011;64907;51.574;6.502;2023-06-04T09:46:29;1.30;;;1.20;;
76157;SDS011;64907;51.574;6.502;2023-06-04T09:48:59;1.95;;;1.38;;
76157;SDS011;64907;51.574;6.502;2023-06-04T09:51:25;1.88;;;1.77;;
76157;SDS011;64907;51.574;6.502;2023-06-04T09:56:23;1.55;;;1.45;;
76157;SDS011;64907;51.574;6.502;2023-06-04T09:58:49;1.75;;;1.65;;
76157;SDS011;64907;51.574;6.502;2023-06-04T10:01:22;2.10;;;1.73;;
76157;SDS011;64907;51.574;6.502;2023-06-04T10:03:50;1.50;;;1.50;;
76157;SDS011;64907;51.574;6.502;2023-06-04T10:06:32;1.30;;;1.30;;
76157;SDS011;64907;51.574;6.502;2023-06-04T10:08:58;1.67;;;1.40;;
76157;SDS011;64907;51.574;6.502;2023-06-04T10:11:25;1.50;;;1.40;;
76157;SDS011;64907;51.574;6.502;2023-06-04T10:13:53;2.78;;;1.50;;
76157;SDS011;64907;51.574;6.502;2023-06-04T10:18:48;1.40;;;1.30;;
76157;SDS011;64907;51.574;6.502;2023-06-04T10:21:15;1.45;;;1.45;;
76157;SDS011;64907;51.574;6.502;2023-06-04T10:23:43;2.35;;;1.70;;
76157;SDS011;64907;51.574;6.502;2023-06-04T10:28:40;1.65;;;1.50;;
76157;SDS011;64907;51.574;6.502;2023-06-04T10:31:05;1.30;;;1.30;;
76157;SDS011;64907;51.574;6.502;2023-06-04T10:33:30;4.10;;;1.40;;
76157;SDS011;64907;51.574;6.502;2023-06-04T10:35:56;1.90;;;1.80;;
76157;SDS011;64907;51.574;6.502;2023-06-04T10:38:21;1.90;;;1.70;;
76157;SDS011;64907;51.574;6.502;2023-06-04T10:40:47;2.67;;;1.50;;
76157;SDS011;64907;51.574;6.502;2023-06-04T10:43:13;1.45;;;1.35;;
76157;SDS011;64907;51.574;6.502;2023-06-04T10:45:38;1.60;;;1.50;;
76157;SDS011;64907;51.574;6.502;2023-06-04T10:50:49;1.60;;;1.25;;
76157;SDS011;64907;51.574;6.502;2023-06-04T10:53:17;1.60;;;1.50;;
76157;SDS011;64907;51.574;6.502;2023-06-04T10:55:44;2.67;;;1.65;;
76157;SDS011;64907;51.574;6.502;2023-06-04T10:58:09;2.65;;;1.40;;
76157;SDS011;64907;51.574;6.502;2023-06-04T11:00:38;1.40;;;1.40;;
76157;SDS011;64907;51.574;6.502;2023-06-04T11:03:07;1.70;;;1.60;;
76157;SDS011;64907;51.574;6.502;2023-06-04T11:05:36;2.75;;;1.75;;
76157;SDS011;64907;51.574;6.502;2023-06-04T11:10:44;1.48;;;1.40;;
76157;SDS011;64907;51.574;6.502;2023-06-04T11:13:09;1.90;;;1.80;;
76157;SDS011;64907;51.574;6.502;2023-06-04T11:15:42;1.80;;;1.70;;
76157;SDS011;64907;51.574;6.502;2023-06-04T11:18:12;2.60;;;1.50;;
76157;SDS011;64907;51.574;6.502;2023-06-04T11:20:38;1.70;;;1.60;;
76157;SDS011;64907;51.574;6.502;2023-06-04T11:23:11;2.30;;;1.60;;
76157;SDS011;64907;51.574;6.502;2023-06-04T11:25:37;2.08;;;1.85;;
76157;SDS011;64907;51.574;6.502;2023-06-04T11:28:02;5.67;;;1.60;;
76157;SDS011;64907;51.574;6.502;2023-06-04T11:33:03;1.70;;;1.60;;
76157;SDS011;64907;51.574;6.502;2023-06-04T11:35:29;2.47;;;1.25;;
76157;SDS011;64907;51.574;6.502;2023-06-04T11:37:56;2.20;;;1.60;;
76157;SDS011;64907;51.574;6.502;2023-06-04T11:40:21;3.35;;;1.70;;
76157;SDS011;64907;51.574;6.502;2023-06-04T11:42:50;1.92;;;1.65;;
76157;SDS011;64907;51.574;6.502;2023-06-04T11:45:16;2.90;;;1.42;;
76157;SDS011;64907;51.574;6.502;2023-06-04T11:50:18;2.05;;;1.85;;
76157;SDS011;64907;51.574;6.502;2023-06-04T11:52:43;2.08;;;1.73;;
76157;SDS011;64907;51.574;6.502;2023-06-04T11:55:09;2.17;;;2.08;;
76157;SDS011;64907;51.574;6.502;2023-06-04T11:57:35;1.95;;;1.85;;
76157;SDS011;64907;51.574;6.502;2023-06-04T12:02:49;1.50;;;1.50;;
76157;SDS011;64907;51.574;6.502;2023-06-04T12:05:16;1.60;;;1.40;;
76157;SDS011;64907;51.574;6.502;2023-06-04T12:07:43;1.60;;;1.50;;
76157;SDS011;64907;51.574;6.502;2023-06-04T12:10:09;1.50;;;1.38;;
76157;SDS011;64907;51.574;6.502;2023-06-04T12:12:34;2.50;;;1.90;;
76157;SDS011;64907;51.574;6.502;2023-06-04T12:15:00;1.70;;;1.60;;
76157;SDS011;64907;51.574;6.502;2023-06-04T12:17:25;2.83;;;1.60;;
76157;SDS011;64907;51.574;6.502;2023-06-04T12:19:51;1.92;;;1.77;;
76157;SDS011;64907;51.574;6.502;2023-06-04T12:22:17;2.70;;;1.70;;
76157;SDS011;64907;51.574;6.502;2023-06-04T12:24:49;1.95;;;1.70;;
76157;SDS011;64907;51.574;6.502;2023-06-04T12:27:18;4.78;;;1.70;;
76157;SDS011;64907;51.574;6.502;2023-06-04T12:29:53;1.70;;;1.60;;
76157;SDS011;64907;51.574;6.502;2023-06-04T12:32:18;4.55;;;1.70;;
76157;SDS011;64907;51.574;6.502;2023-06-04T12:34:45;2.10;;;1.37;;
76157;SDS011;64907;51.574;6.502;2023-06-04T12:37:10;6.03;;;2.30;;
76157;SDS011;64907;51.574;6.502;2023-06-04T12:39:35;6.70;;;1.97;;
76157;SDS011;64907;51.574;6.502;2023-06-04T12:44:35;1.77;;;1.65;;
76157;SDS011;64907;51.574;6.502;2023-06-04T12:47:03;2.05;;;1.50;;
76157;SDS011;64907;51.574;6.502;2023-06-04T12:49:28;1.42;;;1.30;;
76157;SDS011;64907;51.574;6.502;2023-06-04T12:51:54;2.83;;;1.47;;
76157;SDS011;64907;51.574;6.502;2023-06-04T12:54:19;2.38;;;1.50;;
76157;SDS011;64907;51.574;6.502;2023-06-04T12:56:44;1.75;;;1.65;;
76157;SDS011;64907;51.574;6.502;2023-06-04T12:59:10;1.80;;;1.60;;
76157;SDS011;64907;51.574;6.502;2023-06-04T13:01:36;1.73;;;1.42;;
76157;SDS011;64907;51.574;6.502;2023-06-04T13:04:04;2.30;;;2.10;;
76157;SDS011;64907;51.574;6.502;2023-06-04T13:06:30;1.42;;;1.30;;
76157;SDS011;64907;51.574;6.502;2023-06-04T13:08:56;2.67;;;1.70;;
76157;SDS011;64907;51.574;6.502;2023-06-04T13:13:50;4.57;;;1.58;;
76157;SDS011;64907;51.574;6.502;2023-06-04T13:16:15;1.52;;;1.45;;
76157;SDS011;64907;51.574;6.502;2023-06-04T13:18:41;1.50;;;1.50;;
76157;SDS011;64907;51.574;6.502;2023-06-04T13:21:06;1.98;;;1.30;;
76157;SDS011;64907;51.574;6.502;2023-06-04T13:23:31;2.08;;;1.50;;
76157;SDS011;64907;51.574;6.502;2023-06-04T13:25:56;1.90;;;1.80;;
76157;SDS011;64907;51.574;6.502;2023-06-04T13:28:22;2.03;;;1.50;;
76157;SDS011;64907;51.574;6.502;2023-06-04T13:30:48;1.92;;;1.38;;
76157;SDS011;64907;51.574;6.502;2023-06-04T13:33:13;2.38;;;1.60;;
76157;SDS011;64907;51.574;6.502;2023-06-04T13:35:38;1.33;;;1.33;;
76157;SDS011;64907;51.574;6.502;2023-06-04T13:38:04;1.70;;;1.60;;
76157;SDS011;64907;51.574;6.502;2023-06-04T13:43:11;2.38;;;1.50;;
76157;SDS011;64907;51.574;6.502;2023-06-04T13:45:36;1.55;;;1.45;;
76157;SDS011;64907;51.574;6.502;2023-06-04T13:48:01;2.50;;;1.67;;
76157;SDS011;64907;51.574;6.502;2023-06-04T13:50:31;1.58;;;1.48;;
76157;SDS011;64907;51.574;6.502;2023-06-04T13:52:56;1.90;;;1.80;;
76157;SDS011;64907;51.574;6.502;2023-06-04T13:55:21;2.00;;;1.60;;
76157;SDS011;64907;51.574;6.502;2023-06-04T13:57:47;3.92;;;1.67;;
76157;SDS011;64907;51.574;6.502;2023-06-04T14:00:12;2.13;;;1.80;;
76157;SDS011;64907;51.574;6.502;2023-06-04T14:02:39;2.25;;;1.70;;
76157;SDS011;64907;51.574;6.502;2023-06-04T14:05:04;2.00;;;1.55;;
76157;SDS011;64907;51.574;6.502;2023-06-04T14:07:31;2.25;;;1.73;;
76157;SDS011;64907;51.574;6.502;2023-06-04T14:12:27;4.22;;;1.90;;
76157;SDS011;64907;51.574;6.502;2023-06-04T14:14:53;1.60;;;1.60;;
76157;SDS011;64907;51.574;6.502;2023-06-04T14:17:18;1.80;;;1.70;;
76157;SDS011;64907;51.574;6.502;2023-06-04T14:19:43;2.97;;;1.70;;
76157;SDS011;64907;51.574;6.502;2023-06-04T14:22:09;2.00;;;1.87;;
76157;SDS011;64907;51.574;6.502;2023-06-04T14:24:35;2.10;;;1.50;;
76157;SDS011;64907;51.574;6.502;2023-06-04T14:27:00;1.97;;;1.73;;
76157;SDS011;64907;51.574;6.502;2023-06-04T14:29:25;6.80;;;2.77;;
76157;SDS011;64907;51.574;6.502;2023-06-04T14:31:50;3.13;;;2.00;;
76157;SDS011;64907;51.574;6.502;2023-06-04T14:34:15;1.73;;;1.63;;
76157;SDS011;64907;51.574;6.502;2023-06-04T14:36:40;2.83;;;1.50;;
76157;SDS011;64907;51.574;6.502;2023-06-04T14:39:06;1.73;;;1.60;;
76157;SDS011;64907;51.574;6.502;2023-06-04T14:41:37;2.40;;;2.20;;
76157;SDS011;64907;51.574;6.502;2023-06-04T14:44:04;2.75;;;1.85;;
76157;SDS011;64907;51.574;6.502;2023-06-04T14:46:34;3.13;;;2.15;;
76157;SDS011;64907;51.574;6.502;2023-06-04T14:49:02;1.70;;;1.60;;
76157;SDS011;64907;51.574;6.502;2023-06-04T14:54:02;1.80;;;1.70;;
76157;SDS011;64907;51.574;6.502;2023-06-04T14:56:30;3.13;;;1.60;;
76157;SDS011;64907;51.574;6.502;2023-06-04T14:58:57;2.00;;;1.60;;
76157;SDS011;64907;51.574;6.502;2023-06-04T15:01:23;3.33;;;1.80;;
76157;SDS011;64907;51.574;6.502;2023-06-04T15:03:49;2.88;;;2.00;;
76157;SDS011;64907;51.574;6.502;2023-06-04T15:06:14;2.88;;;2.03;;
76157;SDS011;64907;51.574;6.502;2023-06-04T15:08:39;4.00;;;1.90;;
76157;SDS011;64907;51.574;6.502;2023-06-04T15:11:04;1.80;;;1.70;;
76157;SDS011;64907;51.574;6.502;2023-06-04T15:13:30;1.97;;;1.87;;
76157;SDS011;64907;51.574;6.502;2023-06-04T15:18:27;1.90;;;1.80;;
76157;SDS011;64907;51.574;6.502;2023-06-04T15:20:52;1.80;;;1.70;;
76157;SDS011;64907;51.574;6.502;2023-06-04T15:23:17;2.10;;;2.00;;
76157;SDS011;64907;51.574;6.502;2023-06-04T15:25:43;3.00;;;1.98;;
76157;SDS011;64907;51.574;6.502;2023-06-04T15:28:16;2.58;;;1.70;;
76157;SDS011;64907;51.574;6.502;2023-06-04T15:30:47;1.80;;;1.70;;
76157;SDS011;64907;51.574;6.502;2023-06-04T15:33:12;3.95;;;1.58;;
76157;SDS011;64907;51.574;6.502;2023-06-04T15:38:07;1.90;;;1.80;;
76157;SDS011;64907;51.574;6.502;2023-06-04T15:40:32;4.07;;;2.10;;
76157;SDS011;64907;51.574;6.502;2023-06-04T15:42:57;2.30;;;2.10;;
76157;SDS011;64907;51.574;6.502;2023-06-04T15:45:22;2.40;;;2.20;;
76157;SDS011;64907;51.574;6.502;2023-06-04T15:47:50;2.05;;;1.90;;
76157;SDS011;64907;51.574;6.502;2023-06-04T15:50:15;1.92;;;1.83;;
76157;SDS011;64907;51.574;6.502;2023-06-04T15:52:54;2.33;;;1.70;;
76157;SDS011;64907;51.574;6.502;2023-06-04T15:55:20;1.92;;;1.70;;
76157;SDS011;64907;51.574;6.502;2023-06-04T15:57:46;3.53;;;1.90;;
76157;SDS011;64907;51.574;6.502;2023-06-04T16:00:12;1.63;;;1.60;;
76157;SDS011;64907;51.574;6.502;2023-06-04T16:05:08;1.48;;;1.48;;
76157;SDS011;64907;51.574;6.502;2023-06-04T16:07:34;1.70;;;1.60;;
76157;SDS011;64907;51.574;6.502;2023-06-04T16:09:59;2.40;;;2.07;;
76157;SDS011;64907;51.574;6.502;2023-06-04T16:12:24;1.57;;;1.47;;
76157;SDS011;64907;51.574;6.502;2023-06-04T16:14:49;2.65;;;2.00;;
76157;SDS011;64907;51.574;6.502;2023-06-04T16:17:18;3.53;;;2.05;;
76157;SDS011;64907;51.574;6.502;2023-06-04T16:19:43;1.95;;;1.85;;